Terminal Aerodrome Forecast
Issued by NWS Quad Cities IA IL

Home | Current Version | Previous Version | Text Only | Print | Product List | Glossary On
Versions: 1 2 3 4 5 6 7 8 9 10 11 12 13 14 15 16 17 18 19 20
000
FTUS43 KDVN 171604 AAB
TAFDBQ
TAF AMD
KDBQ 171604Z 1716/1812 07008KT 2SM BR OVC005
     FM171800 09007KT 4SM BR BKN007
     FM172000 07006KT 6SM BR BKN012
     FM180000 VRB03KT 4SM BR OVC009
     FM180300 27005KT 3SM BR OVC007=

USA.gov is the U.S. government's official web portal to all federal, state and local government web resources and services.